createdAt,value
2018-03-01T00:00:03.350Z,20.90
2018-03-01T00:01:03.318Z,18.70
2018-03-01T00:02:03.294Z,19.90
2018-03-01T00:03:03.278Z,19.90
2018-03-01T00:04:03.249Z,21.00
2018-03-01T00:05:03.235Z,20.60
2018-03-01T00:07:03.179Z,20.60
2018-03-01T00:08:03.155Z,20.70
2018-03-01T00:09:03.134Z,20.90
2018-03-01T00:10:03.112Z,19.70
2018-03-01T00:11:03.088Z,20.00
2018-03-01T00:12:03.065Z,20.50
2018-03-01T00:13:03.040Z,20.40
2018-03-01T00:14:03.017Z,18.80
2018-03-01T00:15:02.993Z,20.10
2018-03-01T00:16:02.970Z,20.00
2018-03-01T00:17:02.953Z,20.20
2018-03-01T00:18:02.926Z,19.50
2018-03-01T00:19:02.902Z,20.20
2018-03-01T00:20:02.881Z,19.60
2018-03-01T00:21:02.855Z,20.90
2018-03-01T00:22:02.831Z,18.90
2018-03-01T00:23:02.810Z,21.30
2018-03-01T00:24:02.793Z,20.00
2018-03-01T00:25:02.763Z,19.30
2018-03-01T00:26:02.740Z,20.90
2018-03-01T00:27:02.722Z,19.90
2018-03-01T00:28:02.692Z,20.00
2018-03-01T00:29:02.671Z,20.90
2018-03-01T00:30:02.652Z,20.30
2018-03-01T00:31:02.624Z,21.10
2018-03-01T00:32:02.610Z,19.80
2018-03-01T00:33:02.581Z,20.30
2018-03-01T00:34:02.559Z,21.00
2018-03-01T00:35:02.533Z,21.60
2018-03-01T00:36:02.507Z,19.30
2018-03-01T00:37:02.487Z,20.10
2018-03-01T00:38:02.462Z,19.60
2018-03-01T00:39:02.440Z,20.30
2018-03-01T00:40:02.416Z,20.40
2018-03-01T00:41:02.392Z,20.50
2018-03-01T00:42:02.374Z,21.50
2018-03-01T00:43:02.346Z,18.80
2018-03-01T00:44:02.328Z,21.00
2018-03-01T00:45:02.303Z,21.00
2018-03-01T00:46:02.277Z,18.80
2018-03-01T00:47:02.254Z,19.80
2018-03-01T00:48:02.232Z,20.40
2018-03-01T00:49:02.212Z,20.60
2018-03-01T00:50:02.188Z,19.30
2018-03-01T00:51:02.163Z,20.60
2018-03-01T00:52:02.139Z,19.50
2018-03-01T00:53:02.117Z,22.10
2018-03-01T00:54:02.092Z,19.60
2018-03-01T00:55:02.074Z,19.70
2018-03-01T00:56:02.046Z,20.90
2018-03-01T00:57:02.027Z,19.90
2018-03-01T00:58:02.006Z,19.80
2018-03-01T00:59:01.983Z,21.20
2018-03-01T01:00:01.955Z,20.50
2018-03-01T01:01:01.932Z,20.00
2018-03-01T01:02:01.909Z,21.30
2018-03-01T01:03:01.888Z,19.90
2018-03-01T01:04:01.867Z,21.30
2018-03-01T01:05:01.840Z,20.20
2018-03-01T01:06:01.824Z,20.60
2018-03-01T01:07:01.793Z,19.40
2018-03-01T01:08:01.771Z,19.80
2018-03-01T01:09:01.747Z,20.00
2018-03-01T01:10:01.725Z,19.30
2018-03-01T01:11:01.712Z,19.40
2018-03-01T01:12:01.677Z,20.50
2018-03-01T01:13:01.660Z,20.10
2018-03-01T01:14:01.634Z,20.70
2018-03-01T01:15:01.608Z,20.90
2018-03-01T01:16:01.605Z,19.40
2018-03-01T01:17:01.568Z,19.50
2018-03-01T01:18:01.540Z,19.80
2018-03-01T01:19:01.519Z,19.60
2018-03-01T01:20:01.495Z,20.10
2018-03-01T01:21:01.482Z,18.90
2018-03-01T01:22:01.453Z,19.80
2018-03-01T01:23:01.424Z,19.90
2018-03-01T01:24:01.406Z,19.90
2018-03-01T01:25:01.379Z,17.80
2018-03-01T01:26:01.357Z,19.70
2018-03-01T01:27:01.333Z,18.40
2018-03-01T01:28:01.310Z,20.30
2018-03-01T01:29:01.285Z,20.20
2018-03-01T01:30:01.263Z,19.30
2018-03-01T01:31:01.246Z,18.30
2018-03-01T01:32:01.215Z,19.40
2018-03-01T01:33:01.197Z,19.00
2018-03-01T01:34:01.172Z,20.60
2018-03-01T01:35:01.145Z,20.10
2018-03-01T01:36:01.128Z,18.80
2018-03-01T01:37:01.099Z,19.40
2018-03-01T01:38:01.078Z,19.80
2018-03-01T01:39:01.058Z,19.50
2018-03-01T01:40:01.030Z,19.00
2018-03-01T01:41:01.007Z,20.30
2018-03-01T01:42:00.990Z,20.40
2018-03-01T01:43:00.963Z,19.80
2018-03-01T01:44:00.944Z,19.70
2018-03-01T01:45:00.915Z,19.20
2018-03-01T01:46:00.892Z,20.70
2018-03-01T01:47:00.868Z,18.90
2018-03-01T01:48:00.844Z,19.10
2018-03-01T01:49:00.821Z,20.10
2018-03-01T01:50:00.797Z,19.00
2018-03-01T01:51:00.781Z,20.10
2018-03-01T01:52:00.751Z,19.60
2018-03-01T01:53:00.734Z,20.10
2018-03-01T01:54:00.703Z,19.10
2018-03-01T01:55:00.683Z,19.70
2018-03-01T01:56:00.658Z,18.60
2018-03-01T01:57:00.636Z,19.30
2018-03-01T01:58:00.618Z,18.20
2018-03-01T01:59:00.591Z,18.40
2018-03-01T02:00:00.567Z,19.20
2018-03-01T02:01:00.545Z,18.70
2018-03-01T02:02:00.521Z,18.80
2018-03-01T02:03:00.497Z,19.20
2018-03-01T02:04:00.473Z,19.40
2018-03-01T02:05:00.457Z,19.60
2018-03-01T02:06:00.427Z,19.80
2018-03-01T02:07:00.406Z,19.80
2018-03-01T02:08:00.385Z,18.80
2018-03-01T02:09:00.358Z,19.70
2018-03-01T02:10:00.343Z,18.90
2018-03-01T02:11:00.312Z,19.90
2018-03-01T02:12:00.289Z,20.00
2018-03-01T02:13:00.266Z,20.10
2018-03-01T02:14:00.242Z,18.60
2018-03-01T02:15:00.223Z,19.60
2018-03-01T02:16:00.194Z,20.90
2018-03-01T02:17:00.172Z,18.80
2018-03-01T02:18:00.147Z,19.60
2018-03-01T02:19:00.128Z,19.20
2018-03-01T02:20:00.102Z,20.40
2018-03-01T02:21:00.081Z,19.60
2018-03-01T02:22:00.055Z,19.80
2018-03-01T02:23:00.034Z,20.10
2018-03-01T02:24:00.016Z,17.60
2018-03-01T02:24:59.993Z,20.60
2018-03-01T02:25:59.965Z,18.90
2018-03-01T02:26:59.941Z,19.90
2018-03-01T02:27:59.917Z,20.10
2018-03-01T02:28:59.892Z,20.20
2018-03-01T02:29:59.870Z,19.90
2018-03-01T02:30:59.848Z,19.30
2018-03-01T02:31:59.824Z,20.10
2018-03-01T02:32:59.800Z,19.40
2018-03-01T02:33:59.785Z,19.40
2018-03-01T02:34:59.762Z,18.30
2018-03-01T02:35:59.731Z,19.30
2018-03-01T02:36:59.714Z,20.40
2018-03-01T02:37:59.690Z,18.60
2018-03-01T02:38:59.664Z,19.40
2018-03-01T02:39:59.645Z,19.90
2018-03-01T02:40:59.617Z,19.80
2018-03-01T02:41:59.591Z,19.80
2018-03-01T02:42:59.570Z,18.60
2018-03-01T02:43:59.545Z,19.40
2018-03-01T02:44:59.531Z,19.30
2018-03-01T02:45:59.502Z,18.80
2018-03-01T02:46:59.476Z,19.20
2018-03-01T02:47:59.459Z,18.60
2018-03-01T02:48:59.436Z,19.30
2018-03-01T02:49:59.408Z,20.20
2018-03-01T02:50:59.384Z,20.10
2018-03-01T02:51:59.361Z,19.80
2018-03-01T02:52:59.337Z,19.20
2018-03-01T02:53:59.313Z,19.00
2018-03-01T02:54:59.291Z,19.00
2018-03-01T02:55:59.273Z,20.10
2018-03-01T02:56:59.243Z,20.10
2018-03-01T02:57:59.221Z,20.40
2018-03-01T02:58:59.198Z,19.60
2018-03-01T02:59:59.171Z,19.80
2018-03-01T03:00:59.149Z,19.70
2018-03-01T03:01:59.126Z,19.40
2018-03-01T03:02:59.102Z,19.30
2018-03-01T03:03:59.081Z,21.00
2018-03-01T03:04:59.056Z,18.50
2018-03-01T03:05:59.039Z,19.50
2018-03-01T03:06:59.017Z,19.00
2018-03-01T03:07:58.989Z,19.30
2018-03-01T03:08:58.964Z,20.10
2018-03-01T03:09:58.941Z,19.10
2018-03-01T03:10:58.920Z,20.40
2018-03-01T03:11:58.896Z,19.30
2018-03-01T03:12:58.872Z,20.40
2018-03-01T03:13:58.845Z,20.70
2018-03-01T03:14:58.829Z,20.10
2018-03-01T03:15:58.804Z,19.10
2018-03-01T03:16:58.786Z,20.10
2018-03-01T03:17:58.759Z,21.10
2018-03-01T03:18:58.731Z,20.40
2018-03-01T03:19:58.706Z,20.80
2018-03-01T03:20:58.685Z,19.80
2018-03-01T03:21:58.661Z,20.00
2018-03-01T03:22:58.637Z,20.10
2018-03-01T03:23:58.620Z,20.50
2018-03-01T03:24:58.596Z,19.80
2018-03-01T03:25:58.568Z,20.00
2018-03-01T03:26:58.544Z,20.10
2018-03-01T03:27:58.526Z,20.00
2018-03-01T03:28:58.501Z,20.80
2018-03-01T03:29:58.474Z,20.10
2018-03-01T03:30:58.471Z,18.80
2018-03-01T03:31:58.426Z,20.20
2018-03-01T03:32:58.409Z,20.00
2018-03-01T03:33:58.381Z,20.30
2018-03-01T03:34:58.362Z,19.60
2018-03-01T03:35:58.337Z,21.50
2018-03-01T03:36:58.308Z,21.00
2018-03-01T03:37:58.290Z,21.70
2018-03-01T03:38:58.274Z,21.80
2018-03-01T03:39:58.237Z,21.00
2018-03-01T03:40:58.213Z,21.50
2018-03-01T03:41:58.190Z,22.10
2018-03-01T03:42:58.167Z,20.80
2018-03-01T03:43:58.142Z,22.50
2018-03-01T03:44:58.120Z,21.30
2018-03-01T03:45:58.104Z,22.60
2018-03-01T03:46:58.074Z,21.50
2018-03-01T03:47:58.047Z,21.20
2018-03-01T03:48:58.032Z,21.20
2018-03-01T03:49:58.001Z,21.40
2018-03-01T03:50:57.990Z,22.40
2018-03-01T03:51:57.961Z,23.20
2018-03-01T03:52:57.942Z,21.80
2018-03-01T03:53:57.907Z,22.30
2018-03-01T03:54:57.885Z,23.30
2018-03-01T03:55:57.860Z,23.00
2018-03-01T03:56:57.848Z,23.30
2018-03-01T03:57:57.814Z,24.40
2018-03-01T03:58:57.793Z,21.90
2018-03-01T03:59:57.764Z,21.40
2018-03-01T04:00:57.744Z,22.30
2018-03-01T04:01:57.716Z,23.30
2018-03-01T04:02:57.703Z,24.00
2018-03-01T04:03:57.671Z,22.30
2018-03-01T04:04:57.648Z,21.60
2018-03-01T04:05:57.628Z,21.20
2018-03-01T04:06:57.601Z,22.20
2018-03-01T04:07:57.577Z,21.20
2018-03-01T04:08:57.551Z,22.30
2018-03-01T04:09:57.531Z,23.00
2018-03-01T04:10:57.505Z,21.10
2018-03-01T04:11:57.480Z,20.80
2018-03-01T04:12:57.457Z,20.90
2018-03-01T04:13:57.434Z,21.90
2018-03-01T04:14:57.409Z,20.80
2018-03-01T04:15:57.391Z,20.30
2018-03-01T04:16:57.361Z,21.90
2018-03-01T04:17:57.337Z,23.70
2018-03-01T04:18:57.321Z,20.30
2018-03-01T04:19:57.289Z,22.80
2018-03-01T04:20:57.271Z,23.00
2018-03-01T04:21:57.242Z,21.20
2018-03-01T04:22:57.217Z,23.00
2018-03-01T04:23:57.192Z,23.50
2018-03-01T04:24:57.176Z,21.90
2018-03-01T04:25:57.147Z,23.10
2018-03-01T04:26:57.133Z,24.30
2018-03-01T04:27:57.099Z,25.40
2018-03-01T04:28:57.073Z,23.40
2018-03-01T04:29:57.056Z,23.10
2018-03-01T04:30:57.027Z,24.10
2018-03-01T04:31:57.003Z,23.20
2018-03-01T04:32:56.984Z,23.80
2018-03-01T04:33:56.960Z,22.50
2018-03-01T04:34:56.931Z,24.00
2018-03-01T04:35:56.906Z,24.90
2018-03-01T04:36:56.881Z,22.50
2018-03-01T04:37:56.866Z,23.90
2018-03-01T04:38:56.833Z,22.70
2018-03-01T04:39:56.809Z,22.60
2018-03-01T04:40:56.791Z,22.10
2018-03-01T04:41:56.761Z,22.90
2018-03-01T04:42:56.738Z,22.00
2018-03-01T04:43:56.717Z,22.70
2018-03-01T04:44:56.690Z,24.00
2018-03-01T04:45:56.670Z,23.10
2018-03-01T04:46:56.644Z,23.20
2018-03-01T04:47:56.616Z,23.10
2018-03-01T04:48:56.597Z,22.40
2018-03-01T04:49:56.573Z,23.00
2018-03-01T04:50:56.547Z,22.70
2018-03-01T04:51:56.519Z,22.70
2018-03-01T04:52:56.497Z,23.30
2018-03-01T04:53:56.481Z,23.40
2018-03-01T04:54:56.455Z,22.80
2018-03-01T04:55:56.423Z,24.00
2018-03-01T04:56:56.411Z,23.10
2018-03-01T04:57:56.378Z,23.30
2018-03-01T04:58:56.351Z,23.50
2018-03-01T04:59:56.338Z,23.30
2018-03-01T05:00:56.303Z,22.20
2018-03-01T05:01:56.278Z,22.80
2018-03-01T05:02:56.263Z,24.50
2018-03-01T05:03:56.230Z,23.80
2018-03-01T05:04:56.206Z,23.20
2018-03-01T05:05:56.184Z,23.40
2018-03-01T05:06:56.164Z,23.50
2018-03-01T05:07:56.134Z,23.50
2018-03-01T05:08:56.113Z,22.80
2018-03-01T05:09:56.098Z,22.30
2018-03-01T05:10:56.112Z,23.50
2018-03-01T05:11:56.053Z,22.10
2018-03-01T05:12:56.021Z,22.40
2018-03-01T05:13:55.998Z,22.60
2018-03-01T05:14:55.979Z,24.80
2018-03-01T05:15:55.949Z,24.10
2018-03-01T05:16:55.921Z,23.90
2018-03-01T05:17:55.896Z,23.30
2018-03-01T05:18:55.871Z,23.50
2018-03-01T05:19:55.846Z,21.60
2018-03-01T05:20:55.823Z,23.30
2018-03-01T05:21:55.799Z,23.60
2018-03-01T05:22:55.773Z,24.20
2018-03-01T05:23:55.757Z,23.60
2018-03-01T05:24:55.725Z,22.60
2018-03-01T05:25:55.706Z,23.20
2018-03-01T05:26:55.683Z,23.20
2018-03-01T05:27:55.660Z,24.70
2018-03-01T05:28:55.631Z,22.30
2018-03-01T05:29:55.605Z,23.10
2018-03-01T05:30:55.580Z,22.60
2018-03-01T05:31:55.555Z,22.50
2018-03-01T05:32:55.538Z,23.40
2018-03-01T05:33:55.511Z,24.60
2018-03-01T05:34:55.489Z,22.60
2018-03-01T05:35:55.464Z,23.10
2018-03-01T05:36:55.434Z,23.00
2018-03-01T05:37:55.415Z,23.10
2018-03-01T05:38:55.419Z,22.80
2018-03-01T05:39:55.373Z,23.90
2018-03-01T05:40:55.401Z,24.10
2018-03-01T05:41:55.318Z,22.20
2018-03-01T05:42:55.297Z,23.20
2018-03-01T05:43:55.273Z,23.90
2018-03-01T05:44:55.247Z,22.80
2018-03-01T05:45:55.220Z,24.40
2018-03-01T05:46:55.193Z,24.20
2018-03-01T05:47:55.167Z,22.40
2018-03-01T05:48:55.153Z,23.80
2018-03-01T05:49:55.127Z,24.80
2018-03-01T05:50:55.112Z,23.10
2018-03-01T05:51:55.080Z,21.90
2018-03-01T05:52:55.052Z,23.50
2018-03-01T05:53:55.026Z,24.70
2018-03-01T05:54:54.999Z,24.30
2018-03-01T05:55:54.977Z,23.60
2018-03-01T05:56:54.958Z,23.90
2018-03-01T05:57:54.925Z,22.90
2018-03-01T05:58:54.907Z,23.10
2018-03-01T05:59:54.881Z,22.80
2018-03-01T06:00:54.856Z,22.10
2018-03-01T06:01:54.830Z,23.20
2018-03-01T06:02:54.809Z,23.90
2018-03-01T06:03:54.781Z,23.80
2018-03-01T06:04:54.754Z,22.80
2018-03-01T06:05:54.729Z,24.70
2018-03-01T06:06:54.714Z,24.30
2018-03-01T06:07:54.687Z,23.40
2018-03-01T06:08:54.658Z,23.30
2018-03-01T06:09:54.632Z,23.10
2018-03-01T06:10:54.609Z,24.80
2018-03-01T06:11:54.589Z,23.80
2018-03-01T06:12:54.567Z,24.20
2018-03-01T06:13:54.537Z,22.50
2018-03-01T06:14:54.511Z,23.70
2018-03-01T06:15:54.495Z,23.50
2018-03-01T06:16:54.465Z,23.20
2018-03-01T06:17:54.441Z,23.20
2018-03-01T06:18:54.416Z,22.50
2018-03-01T06:19:54.390Z,23.50
2018-03-01T06:20:54.368Z,23.30
2018-03-01T06:21:54.342Z,23.90
2018-03-01T06:22:54.318Z,22.90
2018-03-01T06:23:54.292Z,22.80
2018-03-01T06:24:54.267Z,24.30
2018-03-01T06:25:54.246Z,22.20
2018-03-01T06:26:54.222Z,21.70
2018-03-01T06:27:54.196Z,23.10
2018-03-01T06:28:54.172Z,23.90
2018-03-01T06:29:54.151Z,23.80
2018-03-01T06:30:54.124Z,24.80
2018-03-01T06:31:54.100Z,24.90
2018-03-01T06:32:54.084Z,24.20
2018-03-01T06:33:54.051Z,23.30
2018-03-01T06:34:54.027Z,23.60
2018-03-01T06:35:54.006Z,22.50
2018-03-01T06:36:53.978Z,23.00
2018-03-01T06:37:53.953Z,22.90
2018-03-01T06:38:53.928Z,23.60
2018-03-01T06:39:53.910Z,23.30
2018-03-01T06:40:53.882Z,22.30
2018-03-01T06:41:53.858Z,24.20
2018-03-01T06:42:53.835Z,22.00
2018-03-01T06:43:53.869Z,23.70
2018-03-01T06:44:53.790Z,23.70
2018-03-01T06:45:53.760Z,23.60
2018-03-01T06:46:53.735Z,24.60
2018-03-01T06:47:53.714Z,24.20
2018-03-01T06:48:53.688Z,24.20
2018-03-01T06:49:53.663Z,22.80
2018-03-01T06:50:53.642Z,23.90
2018-03-01T06:51:53.620Z,23.40
2018-03-01T06:52:53.592Z,23.10
2018-03-01T06:53:53.567Z,23.00
2018-03-01T06:54:53.546Z,23.20
2018-03-01T06:55:53.519Z,23.30
2018-03-01T06:56:53.501Z,22.30
2018-03-01T06:57:53.472Z,23.50
2018-03-01T06:58:53.447Z,23.90
2018-03-01T06:59:53.424Z,24.10
2018-03-01T07:00:53.406Z,23.30
2018-03-01T07:01:53.377Z,22.40
2018-03-01T07:02:53.350Z,24.40
2018-03-01T07:03:53.327Z,23.10
2018-03-01T07:04:53.308Z,24.30
2018-03-01T07:05:53.278Z,24.30
2018-03-01T07:06:53.255Z,23.90
2018-03-01T07:07:53.231Z,22.90
2018-03-01T07:08:53.215Z,24.10
2018-03-01T07:09:53.186Z,22.90
2018-03-01T07:10:53.159Z,23.40
2018-03-01T07:11:53.134Z,21.40
2018-03-01T07:12:53.113Z,23.40
2018-03-01T07:13:53.091Z,23.80
2018-03-01T07:14:53.071Z,21.80
2018-03-01T07:15:53.039Z,22.80
2018-03-01T07:16:53.066Z,23.70
2018-03-01T07:17:52.990Z,23.50
2018-03-01T07:18:52.970Z,23.90
2018-03-01T07:19:52.946Z,21.80
2018-03-01T07:20:52.922Z,23.70
2018-03-01T07:21:52.894Z,23.50
2018-03-01T07:22:52.895Z,23.70
2018-03-01T07:23:52.851Z,23.20
2018-03-01T07:24:52.821Z,22.10
2018-03-01T07:25:52.797Z,23.60
2018-03-01T07:26:52.781Z,22.50
2018-03-01T07:27:52.750Z,22.30
2018-03-01T07:28:52.736Z,23.50
2018-03-01T07:29:52.706Z,23.70
2018-03-01T07:30:52.685Z,24.40
2018-03-01T07:31:52.662Z,22.90
2018-03-01T07:32:52.647Z,22.30
2018-03-01T07:33:52.654Z,21.60
2018-03-01T07:34:52.590Z,23.40
2018-03-01T07:35:52.567Z,21.60
2018-03-01T07:36:52.536Z,22.80
2018-03-01T07:37:52.512Z,23.30
2018-03-01T07:38:52.489Z,23.20
2018-03-01T07:39:52.463Z,23.10
2018-03-01T07:40:52.448Z,24.00
2018-03-01T07:41:52.422Z,22.30
2018-03-01T07:42:52.398Z,22.50
2018-03-01T07:43:52.374Z,23.60
2018-03-01T07:44:52.350Z,24.00
2018-03-01T07:45:52.372Z,23.30
2018-03-01T07:46:52.302Z,23.80
2018-03-01T07:47:52.276Z,22.90
2018-03-01T07:48:52.249Z,23.20
2018-03-01T07:49:52.230Z,24.30
2018-03-01T07:50:52.204Z,24.10
2018-03-01T07:51:52.176Z,22.40
2018-03-01T07:52:52.154Z,23.50
2018-03-01T07:53:52.132Z,22.00
2018-03-01T07:54:52.107Z,23.80
2018-03-01T07:55:52.088Z,22.50
2018-03-01T07:56:52.057Z,22.90
2018-03-01T07:57:52.040Z,23.30
2018-03-01T07:58:52.012Z,23.20
2018-03-01T07:59:51.986Z,23.10
2018-03-01T08:00:51.966Z,23.30
2018-03-01T08:01:51.943Z,21.90
2018-03-01T08:02:51.932Z,22.80
2018-03-01T08:03:51.904Z,23.30
2018-03-01T08:04:51.875Z,24.30
2018-03-01T08:05:51.846Z,22.00
2018-03-01T08:06:51.820Z,23.10
2018-03-01T08:07:51.798Z,23.20
2018-03-01T08:08:51.771Z,23.40
2018-03-01T08:09:51.747Z,23.50
2018-03-01T08:10:51.731Z,23.00
2018-03-01T08:11:51.701Z,23.20
2018-03-01T08:12:51.682Z,23.70
2018-03-01T08:13:51.654Z,24.60
2018-03-01T08:14:51.630Z,22.20
2018-03-01T08:15:51.607Z,24.60
2018-03-01T08:16:51.588Z,24.00
2018-03-01T08:17:51.561Z,23.40
2018-03-01T08:18:51.538Z,24.10
2018-03-01T08:19:51.511Z,23.50
2018-03-01T08:20:51.493Z,22.70
2018-03-01T08:21:51.466Z,23.30
2018-03-01T08:22:51.448Z,23.20
2018-03-01T08:23:51.426Z,23.60
2018-03-01T08:24:51.395Z,22.60
2018-03-01T08:25:51.377Z,25.40
2018-03-01T08:26:51.351Z,22.00
2018-03-01T08:27:51.330Z,23.30
2018-03-01T08:28:51.299Z,24.20
2018-03-01T08:29:51.278Z,24.00
2018-03-01T08:30:51.254Z,23.60
2018-03-01T08:31:51.233Z,24.20
2018-03-01T08:32:51.205Z,23.00
2018-03-01T08:33:51.188Z,22.50
2018-03-01T08:34:51.159Z,23.70
2018-03-01T08:35:51.136Z,23.40
2018-03-01T08:36:51.111Z,22.90
2018-03-01T08:37:51.088Z,23.70
2018-03-01T08:38:51.064Z,24.00
2018-03-01T08:39:51.048Z,22.90
2018-03-01T08:40:51.024Z,23.90
2018-03-01T08:41:50.994Z,22.70
2018-03-01T08:42:50.989Z,23.30
2018-03-01T08:43:50.947Z,23.90
2018-03-01T08:44:50.924Z,23.70
2018-03-01T08:45:50.904Z,23.20
2018-03-01T08:46:50.878Z,24.60
2018-03-01T08:47:50.854Z,23.80
2018-03-01T08:48:50.831Z,21.90
2018-03-01T08:49:50.809Z,24.00
2018-03-01T08:50:50.786Z,23.00
2018-03-01T08:51:50.762Z,23.90
2018-03-01T08:52:50.740Z,24.80
2018-03-01T08:53:50.720Z,24.20
2018-03-01T08:54:50.693Z,24.40
2018-03-01T08:55:50.668Z,23.00
2018-03-01T08:56:50.645Z,23.00
2018-03-01T08:57:50.621Z,23.40
2018-03-01T08:58:50.603Z,23.90
2018-03-01T08:59:50.577Z,23.40
2018-03-01T09:00:50.554Z,24.30
2018-03-01T09:01:50.536Z,25.20
2018-03-01T09:02:50.509Z,24.10
2018-03-01T09:03:50.484Z,24.30
2018-03-01T09:04:50.464Z,25.10
2018-03-01T09:05:50.439Z,24.50
2018-03-01T09:06:50.419Z,23.80
2018-03-01T09:07:50.392Z,24.60
2018-03-01T09:08:50.373Z,24.50
2018-03-01T09:09:50.347Z,25.60
2018-03-01T09:10:50.325Z,24.90
2018-03-01T09:11:50.301Z,23.80
2018-03-01T09:12:50.285Z,23.60
2018-03-01T09:13:50.294Z,24.20
2018-03-01T09:14:50.231Z,24.60
2018-03-01T09:15:50.213Z,23.90
2018-03-01T09:16:50.187Z,23.70
2018-03-01T09:17:50.171Z,23.80
2018-03-01T09:18:50.142Z,23.60
2018-03-01T09:19:50.126Z,25.80
2018-03-01T09:20:50.098Z,24.20
2018-03-01T09:21:50.076Z,24.30
2018-03-01T09:22:50.052Z,23.90
2018-03-01T09:23:50.030Z,24.40
2018-03-01T09:24:50.011Z,24.20
2018-03-01T09:25:49.984Z,24.50
2018-03-01T09:26:49.967Z,24.90
2018-03-01T09:27:49.947Z,24.90
2018-03-01T09:28:49.917Z,25.50
2018-03-01T09:29:49.900Z,24.50
2018-03-01T09:30:49.875Z,23.70
2018-03-01T09:31:49.848Z,24.50
2018-03-01T09:32:49.827Z,24.90
2018-03-01T09:33:49.811Z,23.80
2018-03-01T09:34:49.793Z,24.90
2018-03-01T09:35:49.763Z,25.30
2018-03-01T09:36:49.748Z,24.40
2018-03-01T09:37:49.721Z,25.70
2018-03-01T09:38:49.699Z,24.70
2018-03-01T09:39:49.676Z,24.90
2018-03-01T09:40:49.648Z,24.40
2018-03-01T09:41:49.626Z,24.10
2018-03-01T09:42:49.611Z,24.10
2018-03-01T09:43:49.585Z,24.40
2018-03-01T09:44:49.564Z,24.70
2018-03-01T09:45:49.537Z,25.10
2018-03-01T09:46:49.517Z,25.00
2018-03-01T09:47:49.498Z,25.80
2018-03-01T09:48:49.470Z,25.70
2018-03-01T09:49:49.449Z,24.00
2018-03-01T09:50:49.432Z,23.60
2018-03-01T09:51:49.418Z,24.90
2018-03-01T09:52:49.385Z,25.50
2018-03-01T09:53:49.366Z,25.90
2018-03-01T09:54:49.344Z,25.40
2018-03-01T09:55:49.323Z,25.00
2018-03-01T09:56:49.296Z,25.90
2018-03-01T09:57:49.273Z,25.10
2018-03-01T09:58:49.250Z,25.80
2018-03-01T09:59:49.228Z,24.10
2018-03-01T10:00:49.206Z,25.10
2018-03-01T10:01:49.189Z,24.40
2018-03-01T10:02:49.168Z,24.30
2018-03-01T10:03:49.143Z,25.80
2018-03-01T10:04:49.119Z,26.40
2018-03-01T10:05:49.099Z,25.60
2018-03-01T10:06:49.084Z,25.40
2018-03-01T10:07:49.053Z,25.20
2018-03-01T10:08:49.033Z,25.60
2018-03-01T10:09:49.014Z,25.00
2018-03-01T10:10:48.993Z,26.10
2018-03-01T10:11:48.966Z,25.70
2018-03-01T10:12:48.955Z,25.70
2018-03-01T10:13:48.930Z,26.40
2018-03-01T10:14:48.901Z,25.80
2018-03-01T10:15:48.879Z,26.10
2018-03-01T10:16:48.857Z,26.30
2018-03-01T10:17:48.837Z,24.50
2018-03-01T10:18:48.813Z,25.90
2018-03-01T10:19:48.803Z,26.10
2018-03-01T10:20:48.776Z,25.70
2018-03-01T10:21:48.758Z,25.30
2018-03-01T10:22:48.726Z,25.60
2018-03-01T10:23:48.704Z,24.90
2018-03-01T10:24:48.684Z,25.60
2018-03-01T10:25:48.663Z,25.00
2018-03-01T10:26:48.641Z,25.80
2018-03-01T10:27:48.618Z,25.60
2018-03-01T10:28:48.596Z,25.80
2018-03-01T10:29:48.575Z,25.90
2018-03-01T10:30:48.563Z,26.90
2018-03-01T10:31:48.537Z,26.20
2018-03-01T10:32:48.515Z,26.50
2018-03-01T10:33:48.489Z,25.90
2018-03-01T10:34:48.466Z,25.00
2018-03-01T10:35:48.443Z,25.20
2018-03-01T10:36:48.426Z,24.90
2018-03-01T10:37:48.407Z,26.90
2018-03-01T10:38:48.381Z,25.30
2018-03-01T10:39:48.358Z,25.10
2018-03-01T10:40:48.337Z,25.20
2018-03-01T10:41:48.314Z,25.40
2018-03-01T10:42:48.294Z,25.60
2018-03-01T10:43:48.271Z,26.10
2018-03-01T10:44:48.250Z,25.40
2018-03-01T10:45:48.230Z,24.90
2018-03-01T10:46:48.214Z,27.10
2018-03-01T10:47:48.190Z,24.00
2018-03-01T10:48:48.172Z,25.80
2018-03-01T10:49:48.142Z,25.30
2018-03-01T10:50:48.121Z,25.10
2018-03-01T10:51:48.099Z,26.70
2018-03-01T10:52:48.083Z,25.80
2018-03-01T10:53:48.056Z,26.20
2018-03-01T10:54:48.040Z,27.10
2018-03-01T10:55:48.013Z,26.00
2018-03-01T10:56:47.992Z,25.50
2018-03-01T10:57:47.971Z,25.40
2018-03-01T10:58:47.950Z,25.70
2018-03-01T10:59:47.929Z,26.30
2018-03-01T11:00:47.908Z,25.80
2018-03-01T11:01:47.885Z,26.10
2018-03-01T11:02:47.867Z,26.30
2018-03-01T11:03:47.848Z,25.30
2018-03-01T11:04:47.826Z,25.60
2018-03-01T11:05:47.809Z,25.30
2018-03-01T11:06:47.780Z,26.50
2018-03-01T11:07:47.759Z,26.60
2018-03-01T11:08:47.745Z,26.40
2018-03-01T11:09:47.730Z,26.60
2018-03-01T11:10:47.707Z,27.00
2018-03-01T11:11:47.679Z,26.90
2018-03-01T11:12:47.656Z,26.40
2018-03-01T11:13:47.641Z,25.90
2018-03-01T11:14:47.622Z,25.90
2018-03-01T11:15:47.597Z,26.30
2018-03-01T11:16:47.573Z,26.30
2018-03-01T11:17:47.559Z,26.70
2018-03-01T11:18:47.538Z,26.20
2018-03-01T11:19:47.517Z,27.40
2018-03-01T11:20:47.496Z,25.90
2018-03-01T11:21:47.477Z,26.20
2018-03-01T11:22:47.450Z,28.10
2018-03-01T11:23:47.437Z,25.60
2018-03-01T11:24:47.410Z,26.10
2018-03-01T11:25:47.389Z,26.40
2018-03-01T11:26:47.369Z,25.10
2018-03-01T11:27:47.356Z,26.00
2018-03-01T11:28:47.329Z,26.20
2018-03-01T11:29:47.316Z,26.80
2018-03-01T11:30:47.293Z,26.40
2018-03-01T11:31:47.268Z,26.60
2018-03-01T11:32:47.247Z,27.00
2018-03-01T11:33:47.227Z,26.60
2018-03-01T11:34:47.229Z,26.20
2018-03-01T11:35:47.187Z,26.90
2018-03-01T11:36:47.166Z,26.30
2018-03-01T11:37:47.160Z,25.00
2018-03-01T11:38:47.126Z,26.60
2018-03-01T11:39:47.105Z,27.50
2018-03-01T11:40:47.090Z,26.80
2018-03-01T11:41:47.065Z,27.90
2018-03-01T11:42:47.051Z,27.50
2018-03-01T11:43:47.025Z,28.00
2018-03-01T11:44:47.011Z,27.30
2018-03-01T11:45:46.987Z,27.40
2018-03-01T11:46:46.966Z,28.30
2018-03-01T11:47:46.950Z,28.20
2018-03-01T11:48:46.924Z,26.80
2018-03-01T11:49:46.905Z,27.90
2018-03-01T11:50:46.886Z,28.10
2018-03-01T11:51:46.869Z,28.30
2018-03-01T11:52:46.845Z,28.00
2018-03-01T11:53:46.824Z,28.10
2018-03-01T11:54:46.810Z,27.90
2018-03-01T11:55:46.782Z,27.00
2018-03-01T11:56:46.768Z,26.80
2018-03-01T11:57:46.744Z,26.70
2018-03-01T11:58:46.722Z,27.30
2018-03-01T11:59:46.756Z,28.10
2018-03-01T12:00:46.682Z,27.60
2018-03-01T12:01:46.661Z,28.10
2018-03-01T12:02:46.644Z,28.20
2018-03-01T12:03:46.626Z,28.30
2018-03-01T12:04:46.600Z,29.40
2018-03-01T12:05:46.588Z,28.90
2018-03-01T12:06:46.563Z,27.40
2018-03-01T12:07:46.542Z,28.20
2018-03-01T12:08:46.522Z,27.20
2018-03-01T12:09:46.502Z,28.00
2018-03-01T12:10:46.494Z,28.20
2018-03-01T12:11:46.462Z,27.80
2018-03-01T12:12:46.446Z,27.20
2018-03-01T12:13:46.422Z,28.40
2018-03-01T12:14:46.403Z,27.80
2018-03-01T12:15:46.385Z,28.80
2018-03-01T12:16:46.367Z,27.60
2018-03-01T12:17:46.346Z,29.20
2018-03-01T12:18:46.325Z,28.90
2018-03-01T12:19:46.312Z,28.40
2018-03-01T12:20:46.292Z,28.50
2018-03-01T12:21:46.268Z,29.10
2018-03-01T12:22:46.248Z,28.30
2018-03-01T12:23:46.229Z,28.90
2018-03-01T12:24:46.207Z,29.00
2018-03-01T12:25:46.189Z,28.20
2018-03-01T12:26:46.170Z,28.50
2018-03-01T12:27:46.156Z,27.90
2018-03-01T12:28:46.135Z,28.40
2018-03-01T12:29:46.111Z,28.90
2018-03-01T12:30:46.099Z,27.70
2018-03-01T12:31:46.079Z,26.20
2018-03-01T12:32:46.055Z,28.10
2018-03-01T12:33:46.034Z,28.50
2018-03-01T12:34:46.021Z,29.90
2018-03-01T12:35:45.997Z,29.70
2018-03-01T12:36:45.983Z,28.60
2018-03-01T12:37:45.962Z,27.20
2018-03-01T12:38:45.939Z,27.90
2018-03-01T12:39:45.919Z,26.90
2018-03-01T12:40:45.898Z,29.70
2018-03-01T12:41:45.884Z,28.40
2018-03-01T12:42:45.874Z,29.00
2018-03-01T12:43:45.848Z,28.00
2018-03-01T12:44:45.830Z,28.20
2018-03-01T12:45:45.805Z,28.20
2018-03-01T12:46:45.785Z,27.70
2018-03-01T12:47:45.772Z,29.20
2018-03-01T12:48:45.747Z,28.30
2018-03-01T12:49:45.733Z,28.00
2018-03-01T12:50:45.714Z,29.60
2018-03-01T12:51:45.691Z,29.60
2018-03-01T12:52:45.672Z,28.60